Terminal Aerodrome Forecast
Issued by NWS Binghamton, NY

Home | Current Version | Previous Version | Text Only | Print | Product List | Glossary On
Versions: 1 2 3 4 5 6 7 8 9 10 11 12 13 14 15 16 17 18 19 20 21 22 23
000
FTUS41 KBGM 261740
TAFSYR
TAF
KSYR 261740Z 2618/2718 09004KT P6SM OVC025
     FM270700 12009KT 5SM -RA OVC022
     FM270900 14007KT 4SM -SHRA OVC015
     FM271300 VRB03KT P6SM BKN022=

USA.gov is the U.S. government's official web portal to all federal, state and local government web resources and services.